createdAt,value
2023-03-04T00:01:18.987Z,23.88
2023-03-04T00:05:19.135Z,23.87
2023-03-04T00:09:19.106Z,23.85
2023-03-04T00:13:19.435Z,23.85
2023-03-04T00:17:19.395Z,23.86
2023-03-04T00:21:19.698Z,23.85
2023-03-04T00:25:19.861Z,23.85
2023-03-04T00:29:19.874Z,23.84
2023-03-04T00:33:20.250Z,23.84
2023-03-04T00:37:20.374Z,23.84
2023-03-04T00:41:20.389Z,23.83
2023-03-04T00:45:20.671Z,23.83
2023-03-04T00:49:20.821Z,23.82
2023-03-04T00:53:20.890Z,23.82
2023-03-04T00:57:21.145Z,23.81
2023-03-04T01:01:21.349Z,23.81
2023-03-04T01:05:21.377Z,23.80
2023-03-04T01:09:21.693Z,23.80
2023-03-04T01:13:21.907Z,23.80
2023-03-04T01:17:21.897Z,23.79
2023-03-04T01:21:22.269Z,23.78
2023-03-04T01:25:22.372Z,23.79
2023-03-04T01:29:22.468Z,23.79
2023-03-04T01:33:22.811Z,23.79
2023-03-04T01:37:23.000Z,23.79
2023-03-04T01:41:23.112Z,23.78
2023-03-04T01:45:23.368Z,23.77
2023-03-04T01:49:23.586Z,23.77
2023-03-04T01:53:23.568Z,23.77
2023-03-04T01:57:24.210Z,23.77
2023-03-04T02:01:24.177Z,23.75
2023-03-04T02:05:24.212Z,23.75
2023-03-04T02:09:24.592Z,23.75
2023-03-04T02:13:24.720Z,23.73
2023-03-04T02:17:24.848Z,23.75
2023-03-04T02:21:25.228Z,23.72
2023-03-04T02:25:25.388Z,23.72
2023-03-04T02:29:25.505Z,23.72
2023-03-04T02:33:25.788Z,23.72
2023-03-04T02:37:26.069Z,23.70
2023-03-04T02:41:25.884Z,23.70
2023-03-04T02:45:26.008Z,23.71
2023-03-04T02:49:25.952Z,23.69
2023-03-04T02:53:25.785Z,23.69
2023-03-04T02:57:25.858Z,23.69
2023-03-04T03:01:25.859Z,23.70
2023-03-04T03:05:25.649Z,23.70
2023-03-04T03:09:25.731Z,23.68
2023-03-04T03:13:25.688Z,23.68
2023-03-04T03:17:25.528Z,23.67
2023-03-04T03:21:25.669Z,23.67
2023-03-04T03:25:25.586Z,23.65
2023-03-04T03:29:25.449Z,23.66
2023-03-04T03:33:25.561Z,23.65
2023-03-04T03:37:25.550Z,23.65
2023-03-04T03:41:25.319Z,23.66
2023-03-04T03:45:25.462Z,23.66
2023-03-04T03:49:25.247Z,23.65
2023-03-04T03:53:25.250Z,23.65
2023-03-04T03:57:25.158Z,23.63
2023-03-04T04:01:25.145Z,23.62
2023-03-04T04:05:25.088Z,23.63
2023-03-04T04:09:25.083Z,23.61
2023-03-04T04:13:25.003Z,23.63
2023-03-04T04:17:25.030Z,23.61
2023-03-04T04:21:24.945Z,23.61
2023-03-04T04:25:24.953Z,23.61
2023-03-04T04:29:24.868Z,23.61
2023-03-04T04:33:25.073Z,23.59
2023-03-04T04:37:25.117Z,23.60
2023-03-04T04:41:25.085Z,23.59
2023-03-04T04:45:25.295Z,23.59
2023-03-04T04:49:25.239Z,23.58
2023-03-04T04:53:25.184Z,23.58
2023-03-04T04:57:25.117Z,23.58
2023-03-04T05:01:25.269Z,23.58
2023-03-04T05:05:25.040Z,23.57
2023-03-04T05:09:25.052Z,23.57
2023-03-04T05:13:25.053Z,23.57
2023-03-04T05:17:24.926Z,23.57
2023-03-04T05:21:24.843Z,23.55
2023-03-04T05:25:24.870Z,23.54
2023-03-04T05:29:24.882Z,23.54
2023-03-04T05:33:24.796Z,23.54
2023-03-04T05:37:24.810Z,23.54
2023-03-04T05:41:24.739Z,23.53
2023-03-04T05:45:24.718Z,23.53
2023-03-04T05:49:24.723Z,23.53
2023-03-04T05:53:24.672Z,23.53
2023-03-04T05:57:24.655Z,23.53
2023-03-04T06:01:24.576Z,23.53
2023-03-04T06:05:24.536Z,23.53
2023-03-04T06:09:24.568Z,23.53
2023-03-04T06:13:24.508Z,23.53
2023-03-04T06:17:24.416Z,23.54
2023-03-04T06:21:24.261Z,23.55
2023-03-04T06:25:24.239Z,23.54
2023-03-04T06:29:24.205Z,23.55
2023-03-04T06:33:24.186Z,23.57
2023-03-04T06:37:24.115Z,23.59
2023-03-04T06:41:24.116Z,23.59
2023-03-04T06:45:24.077Z,23.59
2023-03-04T06:49:24.034Z,23.59
2023-03-04T06:53:23.957Z,23.61
2023-03-04T06:57:23.948Z,23.62
2023-03-04T07:01:24.082Z,23.63
2023-03-04T07:05:24.033Z,23.66
2023-03-04T07:09:23.856Z,23.66
2023-03-04T07:13:24.179Z,23.67
2023-03-04T07:17:24.120Z,23.68
2023-03-04T07:21:23.997Z,23.69
2023-03-04T07:25:24.066Z,23.71
2023-03-04T07:29:24.080Z,23.72
2023-03-04T07:33:23.857Z,23.75
2023-03-04T07:37:23.967Z,23.77
2023-03-04T07:41:23.982Z,23.79
2023-03-04T07:45:23.746Z,23.80
2023-03-04T07:49:23.868Z,23.81
2023-03-04T07:53:23.843Z,23.84
2023-03-04T07:57:23.660Z,23.86
2023-03-04T08:01:23.797Z,23.90
2023-03-04T08:05:23.724Z,23.93
2023-03-04T08:09:23.550Z,23.97
2023-03-04T08:13:25.796Z,24.00
2023-03-04T08:18:03.601Z,24.03
2023-03-04T08:22:03.645Z,24.05
2023-03-04T08:27:34.428Z,24.09
2023-03-04T08:31:34.327Z,24.14
2023-03-04T08:35:34.384Z,24.23
2023-03-04T08:39:34.339Z,24.30
2023-03-04T08:43:34.124Z,24.34
2023-03-04T08:47:34.449Z,24.40
2023-03-04T08:51:34.342Z,24.46
2023-03-04T08:55:34.258Z,24.51
2023-03-04T08:59:35.967Z,24.55
2023-03-04T09:03:34.345Z,24.58
2023-03-04T09:07:34.309Z,24.63
2023-03-04T09:11:34.106Z,24.67
2023-03-04T09:15:34.223Z,24.69
2023-03-04T09:19:34.212Z,24.72
2023-03-04T09:23:34.045Z,24.75
2023-03-04T09:27:34.036Z,24.79
2023-03-04T09:31:34.026Z,24.83
2023-03-04T09:35:33.910Z,24.87
2023-03-04T09:39:33.957Z,24.91
2023-03-04T09:43:33.913Z,24.94
2023-03-04T09:47:33.775Z,24.98
2023-03-04T09:51:33.851Z,25.02
2023-03-04T09:55:33.900Z,25.07
2023-03-04T09:59:33.683Z,25.11
2023-03-04T10:03:33.814Z,25.16
2023-03-04T10:07:33.727Z,25.21
2023-03-04T10:11:33.790Z,25.26
2023-03-04T10:15:33.916Z,25.32
2023-03-04T10:19:33.894Z,25.37
2023-03-04T10:23:33.704Z,25.42
2023-03-04T10:27:33.796Z,25.48
2023-03-04T10:31:33.782Z,25.53
2023-03-04T10:35:33.689Z,25.57
2023-03-04T10:39:33.696Z,25.62
2023-03-04T10:43:33.613Z,25.69
2023-03-04T10:47:33.482Z,25.73
2023-03-04T10:51:33.530Z,25.78
2023-03-04T10:55:33.565Z,25.83
2023-03-04T10:59:33.361Z,25.89
2023-03-04T11:03:33.392Z,25.93
2023-03-04T11:07:43.526Z,25.98
2023-03-04T11:11:34.328Z,26.02
2023-03-04T11:15:33.288Z,26.07
2023-03-04T11:19:33.201Z,26.12
2023-03-04T11:23:33.536Z,26.17
2023-03-04T11:27:33.557Z,26.22
2023-03-04T11:31:33.428Z,26.26
2023-03-04T11:35:33.360Z,26.29
2023-03-04T11:39:33.287Z,26.36
2023-03-04T11:43:33.266Z,26.40
2023-03-04T11:47:33.350Z,26.45
2023-03-04T11:51:33.331Z,26.51
2023-03-04T11:55:33.168Z,26.56
2023-03-04T11:59:33.242Z,26.61
2023-03-04T12:03:33.283Z,26.65
2023-03-04T12:07:33.085Z,26.71
2023-03-04T12:11:33.190Z,26.75
2023-03-04T12:15:33.343Z,26.79
2023-03-04T12:19:35.041Z,26.85
2023-03-04T12:23:33.458Z,26.89
2023-03-04T12:27:33.590Z,26.93
2023-03-04T12:31:33.480Z,26.98
2023-03-04T12:35:33.592Z,27.03
2023-03-04T12:39:33.627Z,27.07
2023-03-04T12:43:35.932Z,27.11
2023-03-04T12:47:33.806Z,27.16
2023-03-04T12:51:33.928Z,27.21
2023-03-04T12:55:33.900Z,27.26
2023-03-04T12:59:33.904Z,27.31
2023-03-04T13:03:34.049Z,27.38
2023-03-04T13:07:33.816Z,27.43
2023-03-04T13:11:33.835Z,27.50
2023-03-04T13:15:33.862Z,27.57
2023-03-04T13:19:33.722Z,27.65
2023-03-04T13:23:33.814Z,27.74
2023-03-04T13:27:35.855Z,27.81
2023-03-04T13:31:33.596Z,27.87
2023-03-04T13:35:33.722Z,27.95
2023-03-04T13:39:33.737Z,28.04
2023-03-04T13:43:33.661Z,28.11
2023-03-04T13:47:33.828Z,28.20
2023-03-04T13:51:33.781Z,28.28
2023-03-04T13:55:33.635Z,28.36
2023-03-04T13:59:33.701Z,28.44
2023-03-04T14:03:33.658Z,28.50
2023-03-04T14:07:33.527Z,28.57
2023-03-04T14:11:33.593Z,28.64
2023-03-04T14:15:33.551Z,28.71
2023-03-04T14:19:33.430Z,28.78
2023-03-04T14:23:33.452Z,28.86
2023-03-04T14:27:33.491Z,28.96
2023-03-04T14:31:33.297Z,29.02
2023-03-04T14:35:33.436Z,29.11
2023-03-04T14:39:33.328Z,29.17
2023-03-04T14:43:33.220Z,29.24
2023-03-04T14:47:33.158Z,29.31
2023-03-04T14:51:33.218Z,29.37
2023-03-04T14:55:33.150Z,29.46
2023-03-04T14:59:33.149Z,29.52
2023-03-04T15:03:33.132Z,29.60
2023-03-04T15:07:33.049Z,29.65
2023-03-04T15:11:33.031Z,29.70
2023-03-04T15:15:32.976Z,29.76
2023-03-04T15:19:32.979Z,29.79
2023-03-04T15:23:32.932Z,29.82
2023-03-04T15:27:32.844Z,29.84
2023-03-04T15:31:32.850Z,29.85
2023-03-04T15:35:32.830Z,29.83
2023-03-04T15:39:32.771Z,29.76
2023-03-04T15:43:32.751Z,29.68
2023-03-04T15:47:32.905Z,29.62
2023-03-04T15:51:32.870Z,29.55
2023-03-04T15:55:32.843Z,29.49
2023-03-04T15:59:32.799Z,29.44
2023-03-04T16:03:32.779Z,29.40
2023-03-04T16:07:32.753Z,29.36
2023-03-04T16:11:32.743Z,29.33
2023-03-04T16:15:32.733Z,29.30
2023-03-04T16:19:32.599Z,29.27
2023-03-04T16:23:32.735Z,29.25
2023-03-04T16:27:32.580Z,29.22
2023-03-04T16:31:32.571Z,29.17
2023-03-04T16:35:32.633Z,29.13
2023-03-04T16:39:32.554Z,29.08
2023-03-04T16:43:32.412Z,29.03
2023-03-04T16:47:32.472Z,28.97
2023-03-04T16:51:32.566Z,28.92
2023-03-04T16:55:32.443Z,28.88
2023-03-04T16:59:32.489Z,28.83
2023-03-04T17:03:32.479Z,28.79
2023-03-04T17:07:32.306Z,28.73
2023-03-04T17:11:32.492Z,28.69
2023-03-04T17:15:32.332Z,28.65
2023-03-04T17:19:32.248Z,28.61
2023-03-04T17:23:32.169Z,28.56
2023-03-04T17:27:32.345Z,28.51
2023-03-04T17:31:32.270Z,28.47
2023-03-04T17:35:32.116Z,28.43
2023-03-04T17:39:32.057Z,28.40
2023-03-04T17:43:31.999Z,28.37
2023-03-04T17:47:32.050Z,28.34
2023-03-04T17:51:32.007Z,28.30
2023-03-04T17:55:31.903Z,28.27
2023-03-04T17:59:32.049Z,28.24
2023-03-04T18:03:31.947Z,28.21
2023-03-04T18:07:31.830Z,28.17
2023-03-04T18:11:31.989Z,28.13
2023-03-04T18:15:32.241Z,28.10
2023-03-04T18:19:32.326Z,28.08
2023-03-04T18:23:32.234Z,28.05
2023-03-04T18:27:32.206Z,28.01
2023-03-04T18:31:32.263Z,27.97
2023-03-04T18:35:32.289Z,27.94
2023-03-04T18:39:32.128Z,27.90
2023-03-04T18:43:32.044Z,27.87
2023-03-04T18:47:31.996Z,27.83
2023-03-04T18:51:32.198Z,27.79
2023-03-04T18:55:32.121Z,27.75
2023-03-04T18:59:31.948Z,27.73
2023-03-04T19:03:32.040Z,27.71
2023-03-04T19:07:31.974Z,27.70
2023-03-04T19:11:31.826Z,27.68
2023-03-04T19:15:31.918Z,27.66
2023-03-04T19:19:31.884Z,27.61
2023-03-04T19:23:31.687Z,27.59
2023-03-04T19:27:31.843Z,27.56
2023-03-04T19:31:31.777Z,27.53
2023-03-04T19:35:31.694Z,27.52
2023-03-04T19:39:31.785Z,27.49
2023-03-04T19:43:31.764Z,27.47
2023-03-04T19:47:31.736Z,27.43
2023-03-04T19:51:31.978Z,27.42
2023-03-04T19:55:32.077Z,27.38
2023-03-04T19:59:32.033Z,27.36
2023-03-04T20:03:32.349Z,27.33
2023-03-04T20:07:32.440Z,27.31
2023-03-04T20:11:32.388Z,27.29
2023-03-04T20:15:32.775Z,27.27
2023-03-04T20:19:32.929Z,27.25
2023-03-04T20:23:32.841Z,27.22
2023-03-04T20:27:33.175Z,27.20
2023-03-04T20:31:33.179Z,27.18
2023-03-04T20:35:33.383Z,27.16
2023-03-04T20:39:33.710Z,27.13
2023-03-04T20:43:33.885Z,27.13
2023-03-04T20:47:34.077Z,27.10
2023-03-04T20:51:34.276Z,27.08
2023-03-04T20:55:34.445Z,27.05
2023-03-04T20:59:34.663Z,27.04
2023-03-04T21:03:34.629Z,27.01
2023-03-04T21:07:34.947Z,27.00
2023-03-04T21:11:35.204Z,26.98
2023-03-04T21:15:35.227Z,26.95
2023-03-04T21:19:35.435Z,26.93
2023-03-04T21:23:38.366Z,26.91
2023-03-04T21:27:35.646Z,26.88
2023-03-04T21:31:35.668Z,26.86
2023-03-04T21:35:35.595Z,26.85
2023-03-04T21:39:35.565Z,26.83
2023-03-04T21:43:36.207Z,26.82
2023-03-04T21:47:35.477Z,26.78
2023-03-04T21:51:35.409Z,26.77
2023-03-04T21:55:35.376Z,26.75
2023-03-04T21:59:35.514Z,26.73
2023-03-04T22:03:35.474Z,26.73
2023-03-04T22:07:35.304Z,26.70
2023-03-04T22:11:35.432Z,26.68
2023-03-04T22:15:35.484Z,26.67
2023-03-04T22:19:35.383Z,26.65
2023-03-04T22:23:35.479Z,26.62
2023-03-04T22:27:35.537Z,26.61
2023-03-04T22:31:35.580Z,26.59
2023-03-04T22:35:35.660Z,26.57
2023-03-04T22:39:35.594Z,26.56
2023-03-04T22:43:35.377Z,26.54
2023-03-04T22:47:35.515Z,26.52
2023-03-04T22:51:35.415Z,26.51
2023-03-04T22:55:35.868Z,26.49
2023-03-04T22:59:35.693Z,26.47
2023-03-04T23:03:35.675Z,26.46
2023-03-04T23:07:35.521Z,26.43
2023-03-04T23:11:35.637Z,26.43
2023-03-04T23:15:35.531Z,26.41
2023-03-04T23:19:35.507Z,26.39
2023-03-04T23:23:35.854Z,26.38
2023-03-04T23:27:35.972Z,26.35
2023-03-04T23:31:35.920Z,26.34
2023-03-04T23:35:36.245Z,26.33
2023-03-04T23:39:36.106Z,26.31
2023-03-04T23:43:36.242Z,26.31
2023-03-04T23:47:36.307Z,26.30
2023-03-04T23:51:36.376Z,26.28
2023-03-04T23:55:36.305Z,26.24
2023-03-04T23:59:36.400Z,26.22
